Time;durP1;ratioP1;P1;durP2;ratioP2;P2;SDS_P1;SDS_P2;PMS_P1;PMS_P2;Temp;Humidity;BMP_temperature;BMP_pressure;BME280_temperature;BME280_humidity;BME280_pressure;Samples;Min_cycle;Max_cycle;Signal;HPM_P1;HPM_P2
2022/02/18 00:01:47;;;;;;;21.90;20.90;;;14.40;75.40;;;;;;4957183;28;20045;-87
2022/02/18 00:04:13;;;;;;;23.42;22.33;;;14.40;75.50;;;;;;4967695;28;20026;-87
2022/02/18 00:06:39;;;;;;;23.00;21.90;;;14.40;75.50;;;;;;4970650;28;20038;-87
2022/02/18 00:09:05;;;;;;;22.42;21.42;;;14.40;75.50;;;;;;4959986;28;20039;-87
2022/02/18 00:11:31;;;;;;;22.52;21.50;;;14.40;75.60;;;;;;4964305;28;20034;-84
2022/02/18 00:13:57;;;;;;;22.17;21.17;;;14.40;75.60;;;;;;4966127;28;20023;-87
2022/02/18 00:16:24;;;;;;;23.48;22.38;;;14.40;75.70;;;;;;4968348;28;20043;-86
2022/02/18 00:18:50;;;;;;;24.02;22.92;;;14.40;75.70;;;;;;4970142;28;20045;-87
2022/02/18 00:21:16;;;;;;;24.25;23.15;;;14.40;75.80;;;;;;4959758;28;20383;-87
2022/02/18 00:23:42;;;;;;;23.45;22.35;;;14.40;75.90;;;;;;4959133;28;20479;-87
2022/02/18 00:26:10;;;;;;;23.25;22.15;;;14.40;75.90;;;;;;4961051;28;20028;-87
2022/02/18 00:28:36;;;;;;;23.73;22.63;;;14.40;75.90;;;;;;4964802;28;20071;-86
2022/02/18 00:31:02;;;;;;;23.63;22.50;;;14.40;76.00;;;;;;4967888;28;20028;-86
2022/02/18 00:33:28;;;;;;;23.52;22.42;;;14.40;76.00;;;;;;4956174;28;20027;-87
2022/02/18 00:35:54;;;;;;;23.48;22.38;;;14.30;75.90;;;;;;4958893;28;20030;-86
2022/02/18 00:38:21;;;;;;;22.52;21.50;;;14.30;76.00;;;;;;4959914;28;20057;-86
2022/02/18 00:40:47;;;;;;;22.63;21.63;;;14.30;76.00;;;;;;4966906;28;20041;-86
2022/02/18 00:43:13;;;;;;;24.00;22.88;;;14.30;76.10;;;;;;4969776;28;20035;-86
2022/02/18 00:45:39;;;;;;;22.95;21.88;;;14.30;76.50;;;;;;4954266;28;20377;-86
2022/02/18 00:48:06;;;;;;;22.88;21.83;;;14.30;76.10;;;;;;4959298;28;20054;-87
2022/02/18 00:50:32;;;;;;;23.73;22.63;;;14.30;76.20;;;;;;4966806;28;20027;-86
2022/02/18 00:52:58;;;;;;;22.65;21.65;;;14.30;76.20;;;;;;4963375;28;20038;-86
2022/02/18 00:55:24;;;;;;;24.60;23.50;;;14.30;76.20;;;;;;4965052;28;20033;-87
2022/02/18 00:57:50;;;;;;;23.50;22.42;;;14.30;76.30;;;;;;4954001;29;20043;-86
2022/02/18 01:00:16;;;;;;;23.50;22.40;;;14.30;76.30;;;;;;4958169;28;20034;-86
2022/02/18 01:02:43;;;;;;;24.05;22.95;;;14.30;76.30;;;;;;4958773;28;20031;-86
2022/02/18 01:05:09;;;;;;;23.15;22.05;;;14.30;76.30;;;;;;4963547;28;20051;-86
2022/02/18 01:07:36;;;;;;;23.27;22.17;;;14.30;76.40;;;;;;4941943;28;20043;-86
2022/02/18 01:10:03;;;;;;;23.92;22.83;;;14.30;76.40;;;;;;4955572;28;20027;-86
2022/02/18 01:12:29;;;;;;;24.15;23.05;;;14.30;76.40;;;;;;4956730;28;20058;-86
2022/02/18 01:14:55;;;;;;;24.63;23.45;;;14.30;76.40;;;;;;4965957;28;20030;-86
2022/02/18 01:17:21;;;;;;;24.08;22.98;;;14.30;76.40;;;;;;4959588;28;20051;-86
2022/02/18 01:19:48;;;;;;;24.13;23.02;;;14.30;76.50;;;;;;4958550;28;20041;-86
2022/02/18 01:22:14;;;;;;;22.70;21.67;;;14.30;76.50;;;;;;4968926;28;20030;-86
2022/02/18 01:24:40;;;;;;;23.77;22.67;;;14.30;76.50;;;;;;4954655;28;20058;-86
2022/02/18 01:27:06;;;;;;;24.95;23.83;;;14.30;76.50;;;;;;4956994;28;20043;-85
2022/02/18 01:29:38;;;;;;;24.27;22.98;;;14.20;76.50;;;;;;4962281;28;20031;-85
2022/02/18 01:32:11;;;;;;;23.92;22.83;;;14.20;76.50;;;;;;4960916;28;20043;-86
2022/02/18 01:34:38;;;;;;;24.40;23.30;;;14.20;76.50;;;;;;4957709;28;20035;-86
2022/02/18 01:37:04;;;;;;;23.70;22.60;;;14.20;76.50;;;;;;4954659;28;20069;-86
2022/02/18 01:39:31;;;;;;;24.25;23.15;;;14.20;76.50;;;;;;4956067;28;20034;-86
2022/02/18 01:41:57;;;;;;;24.27;23.08;;;14.20;76.50;;;;;;4956779;28;20031;-86
2022/02/18 01:44:32;;;;;;;24.25;23.15;;;14.20;76.50;;;;;;4957327;28;20393;-86
2022/02/18 01:46:58;;;;;;;23.23;22.13;;;14.20;76.50;;;;;;4956973;28;20043;-86
2022/02/18 01:49:24;;;;;;;23.15;22.05;;;14.20;76.50;;;;;;4957720;28;20034;-86
2022/02/18 01:51:50;;;;;;;23.60;22.50;;;14.20;76.60;;;;;;4953239;28;20046;-86
2022/02/18 01:54:16;;;;;;;23.02;21.92;;;14.20;76.50;;;;;;4967613;28;20023;-86
2022/02/18 01:56:42;;;;;;;24.90;23.75;;;14.20;76.50;;;;;;4956125;28;20395;-86
2022/02/18 01:59:08;;;;;;;24.08;22.98;;;14.20;76.50;;;;;;4955355;28;20040;-86
2022/02/18 02:01:34;;;;;;;24.55;23.25;;;14.20;76.50;;;;;;4957158;28;20035;-86
2022/02/18 02:04:01;;;;;;;23.55;22.45;;;14.20;76.50;;;;;;4954420;28;20390;-86
2022/02/18 02:06:27;;;;;;;24.02;22.92;;;14.20;76.50;;;;;;4956393;28;20035;-86
2022/02/18 02:08:53;;;;;;;23.60;22.50;;;14.20;76.60;;;;;;4957574;28;20043;-85
2022/02/18 02:11:20;;;;;;;23.48;22.38;;;14.20;76.50;;;;;;4961881;28;20030;-86
2022/02/18 02:13:46;;;;;;;23.23;22.13;;;14.20;76.60;;;;;;4965531;28;20023;-86
2022/02/18 02:16:13;;;;;;;24.25;23.15;;;14.20;76.60;;;;;;4955283;28;20046;-85
2022/02/18 02:18:39;;;;;;;24.40;23.30;;;14.10;76.70;;;;;;4954088;28;20414;-86
2022/02/18 02:21:05;;;;;;;24.50;23.30;;;14.10;76.70;;;;;;4957479;28;20034;-86
2022/02/18 02:23:32;;;;;;;23.80;22.70;;;14.10;76.70;;;;;;4957555;28;20046;-86
2022/02/18 02:25:58;;;;;;;23.80;22.70;;;14.10;76.70;;;;;;4955270;28;20386;-86
2022/02/18 02:28:24;;;;;;;24.52;23.30;;;14.10;76.80;;;;;;4954994;28;20027;-85
2022/02/18 02:30:51;;;;;;;23.23;22.13;;;14.10;76.80;;;;;;4967811;28;20050;-86
2022/02/18 02:33:17;;;;;;;23.70;22.60;;;14.00;76.80;;;;;;4955820;28;20047;-85
2022/02/18 02:35:43;;;;;;;23.45;22.35;;;14.00;76.80;;;;;;4957114;28;20035;-86
2022/02/18 02:38:09;;;;;;;22.52;21.50;;;14.00;76.90;;;;;;4959096;28;20043;-86
2022/02/18 02:40:35;;;;;;;23.33;22.23;;;14.00;76.90;;;;;;4966206;28;20034;-86
2022/02/18 02:43:01;;;;;;;23.40;22.20;;;14.00;77.00;;;;;;4963406;28;20039;-86
2022/02/18 02:45:28;;;;;;;23.67;22.58;;;14.00;77.00;;;;;;4953975;28;20043;-86
2022/02/18 02:47:54;;;;;;;22.67;21.65;;;14.00;77.00;;;;;;4956189;28;20383;-86
2022/02/18 02:50:20;;;;;;;22.73;21.70;;;13.90;77.10;;;;;;4957024;28;20043;-86
2022/02/18 02:52:46;;;;;;;22.50;21.50;;;13.90;77.10;;;;;;4965679;28;20046;-86
2022/02/18 02:55:13;;;;;;;22.50;21.50;;;13.90;77.10;;;;;;4954699;28;21864;-86
2022/02/18 02:57:43;;;;;;;22.65;21.65;;;13.90;77.10;;;;;;4951742;28;20495;-86
2022/02/18 03:00:11;;;;;;;21.92;20.92;;;13.90;77.10;;;;;;4954879;28;20418;-86
2022/02/18 03:02:38;;;;;;;22.48;21.48;;;13.90;77.10;;;;;;4955386;28;20078;-86
2022/02/18 03:05:05;;;;;;;22.00;21.00;;;13.90;77.20;;;;;;4952782;28;20038;-85
2022/02/18 03:07:31;;;;;;;21.48;20.48;;;13.90;77.10;;;;;;4949171;28;20058;-87
2022/02/18 03:09:57;;;;;;;21.73;20.73;;;13.90;77.10;;;;;;4949047;29;20518;-87
2022/02/18 03:12:23;;;;;;;22.05;21.05;;;13.90;77.10;;;;;;4958617;28;20034;-87
2022/02/18 03:14:49;;;;;;;22.33;21.23;;;13.90;77.20;;;;;;4962680;28;20365;-87
2022/02/18 03:17:15;;;;;;;22.27;21.27;;;13.90;77.20;;;;;;4952247;28;20047;-87
2022/02/18 03:19:41;;;;;;;20.88;19.88;;;13.90;77.20;;;;;;4952801;29;20493;-87
2022/02/18 03:22:07;;;;;;;21.73;20.73;;;13.90;77.20;;;;;;4951581;29;20031;-87
2022/02/18 03:24:34;;;;;;;21.15;20.15;;;13.90;77.30;;;;;;4951679;29;20050;-87
2022/02/18 03:27:00;;;;;;;21.58;20.58;;;13.90;77.30;;;;;;4949796;29;20070;-86
2022/02/18 03:29:27;;;;;;;21.23;20.23;;;13.90;77.30;;;;;;4949994;29;20038;-88
2022/02/18 03:31:53;;;;;;;21.70;20.70;;;13.90;77.30;;;;;;4954791;28;20034;-87
2022/02/18 03:34:20;;;;;;;21.95;20.95;;;13.90;77.30;;;;;;4962416;28;20039;-86
2022/02/18 03:36:46;;;;;;;21.20;20.20;;;13.90;77.30;;;;;;4935996;29;20031;-86
2022/02/18 03:39:12;;;;;;;21.50;20.50;;;13.90;77.40;;;;;;4959691;28;20043;-87
2022/02/18 03:41:38;;;;;;;21.58;20.58;;;13.90;77.40;;;;;;4966943;28;20478;-86
2022/02/18 03:44:08;;;;;;;22.50;21.50;;;13.90;77.40;;;;;;4965477;28;20042;-86
2022/02/18 03:46:34;;;;;;;21.30;20.30;;;13.90;77.50;;;;;;4957101;28;20517;-86
2022/02/18 03:49:00;;;;;;;20.77;19.83;;;13.90;77.50;;;;;;4956283;28;20505;-86
2022/02/18 03:51:26;;;;;;;21.40;20.40;;;13.90;77.50;;;;;;4958986;28;20529;-86
2022/02/18 03:53:52;;;;;;;20.77;19.83;;;13.90;77.50;;;;;;4964882;28;20035;-87
2022/02/18 03:56:18;;;;;;;21.40;20.40;;;13.90;77.50;;;;;;4957115;28;20050;-87
2022/02/18 03:58:45;;;;;;;21.42;20.42;;;13.90;77.50;;;;;;4967421;28;20054;-87
2022/02/18 04:01:11;;;;;;;22.17;21.17;;;13.90;77.50;;;;;;4969600;28;20039;-86
2022/02/18 04:03:37;;;;;;;23.00;21.90;;;13.90;77.60;;;;;;4939303;28;20054;-86
2022/02/18 04:06:03;;;;;;;22.05;21.05;;;13.80;77.60;;;;;;4958731;28;20031;-86
2022/02/18 04:08:29;;;;;;;21.73;20.73;;;13.80;77.60;;;;;;4958889;28;20065;-86
2022/02/18 04:10:55;;;;;;;21.73;20.73;;;13.80;77.60;;;;;;4959066;28;20046;-86
2022/02/18 04:13:22;;;;;;;22.63;21.63;;;13.80;77.70;;;;;;4963068;28;20470;-87
2022/02/18 04:15:49;;;;;;;22.50;21.40;;;13.80;77.60;;;;;;4956914;28;20046;-86
2022/02/18 04:18:15;;;;;;;22.65;21.63;;;13.80;77.60;;;;;;4959730;28;20039;-87
2022/02/18 04:20:41;;;;;;;22.40;21.40;;;13.80;77.60;;;;;;4957334;28;20046;-87
2022/02/18 04:23:07;;;;;;;22.85;21.77;;;13.80;77.60;;;;;;4964275;28;20047;-86
2022/02/18 04:25:34;;;;;;;22.00;21.00;;;13.80;77.60;;;;;;4948954;28;20036;-86
2022/02/18 04:28:03;;;;;;;22.48;21.48;;;13.80;77.60;;;;;;4957552;28;20027;-86
2022/02/18 04:30:29;;;;;;;22.38;21.38;;;13.80;77.70;;;;;;4955631;28;20619;-87
2022/02/18 04:32:55;;;;;;;21.45;20.45;;;13.80;77.70;;;;;;4967922;28;20042;-86
2022/02/18 04:35:21;;;;;;;21.60;20.52;;;13.80;77.70;;;;;;4962298;28;20054;-87
2022/02/18 04:37:47;;;;;;;21.92;20.92;;;13.70;77.70;;;;;;4958472;28;20507;-86
2022/02/18 04:40:14;;;;;;;22.20;21.20;;;13.70;77.70;;;;;;4966774;28;20134;-86
2022/02/18 04:42:40;;;;;;;23.42;22.23;;;13.70;77.70;;;;;;4968219;28;20046;-86
2022/02/18 04:45:07;;;;;;;21.70;20.70;;;13.70;77.70;;;;;;4964705;28;20042;-86
2022/02/18 04:47:33;;;;;;;22.20;21.20;;;13.70;77.70;;;;;;4958056;28;20051;-85
2022/02/18 04:49:59;;;;;;;22.52;21.52;;;13.70;77.70;;;;;;4958149;28;20055;-86
2022/02/18 04:52:25;;;;;;;22.17;21.17;;;13.70;77.80;;;;;;4958237;28;20027;-86
2022/02/18 04:54:53;;;;;;;21.10;20.10;;;13.60;77.80;;;;;;4965225;28;20378;-87
2022/02/18 04:57:19;;;;;;;21.50;20.50;;;13.60;77.80;;;;;;4965997;28;20042;-86
2022/02/18 04:59:45;;;;;;;21.73;20.73;;;13.60;77.90;;;;;;4958702;28;20028;-87
2022/02/18 05:02:13;;;;;;;21.67;20.65;;;13.60;77.90;;;;;;4958130;28;20414;-87
2022/02/18 05:04:40;;;;;;;21.42;20.42;;;13.60;77.90;;;;;;4958388;28;20026;-83
2022/02/18 05:07:06;;;;;;;21.23;20.23;;;13.60;78.00;;;;;;4954996;28;20043;-83
2022/02/18 05:09:33;;;;;;;20.98;19.98;;;13.60;78.00;;;;;;4956062;28;20034;-82
2022/02/18 05:11:59;;;;;;;20.92;19.85;;;13.60;78.10;;;;;;4958390;28;20042;-82
2022/02/18 05:14:25;;;;;;;20.98;19.98;;;13.50;78.00;;;;;;4964756;28;20030;-83
2022/02/18 05:16:51;;;;;;;20.33;19.42;;;13.50;78.10;;;;;;4962623;28;20573;-84
2022/02/18 05:19:17;;;;;;;20.92;19.95;;;13.50;78.10;;;;;;4965420;28;20038;-83
2022/02/18 05:21:43;;;;;;;20.88;19.88;;;13.50;78.10;;;;;;4959999;28;20406;-83
2022/02/18 05:24:09;;;;;;;20.35;19.45;;;13.50;78.20;;;;;;4970299;28;20405;-83
2022/02/18 05:26:35;;;;;;;20.98;19.98;;;13.50;78.20;;;;;;4958688;28;20050;-83
2022/02/18 05:29:01;;;;;;;20.23;19.33;;;13.50;78.20;;;;;;4957921;28;20412;-83
2022/02/18 05:31:28;;;;;;;20.25;19.35;;;13.50;78.20;;;;;;4965019;28;20035;-83
2022/02/18 05:33:54;;;;;;;20.58;19.67;;;13.50;78.30;;;;;;4965374;28;20055;-83
2022/02/18 05:36:20;;;;;;;19.85;18.95;;;13.50;78.30;;;;;;4957467;28;20042;-83
2022/02/18 05:38:46;;;;;;;20.38;19.48;;;13.50;78.40;;;;;;4957742;28;20047;-83
2022/02/18 05:41:16;;;;;;;20.13;19.23;;;13.50;78.40;;;;;;4956120;28;20410;-83
2022/02/18 05:43:43;;;;;;;20.10;19.20;;;13.40;78.30;;;;;;4957248;28;20023;-84
2022/02/18 05:46:09;;;;;;;20.58;19.60;;;13.50;78.40;;;;;;4954576;28;20282;-84
2022/02/18 05:48:35;;;;;;;20.65;19.75;;;13.50;78.40;;;;;;4959487;28;20058;-83
2022/02/18 05:51:01;;;;;;;20.33;19.42;;;13.50;78.40;;;;;;4964445;28;20394;-83
2022/02/18 05:53:28;;;;;;;20.55;19.65;;;13.50;78.40;;;;;;4967756;28;20054;-83
2022/02/18 05:55:54;;;;;;;20.52;19.63;;;13.50;78.40;;;;;;4964085;28;20035;-83
2022/02/18 05:58:20;;;;;;;20.73;19.77;;;13.50;78.40;;;;;;4968466;28;20042;-83
2022/02/18 06:00:46;;;;;;;21.35;20.35;;;13.50;78.40;;;;;;4952792;28;20478;-84
2022/02/18 06:03:12;;;;;;;20.80;19.83;;;13.50;78.40;;;;;;4960954;28;20039;-84
2022/02/18 06:05:40;;;;;;;21.30;20.30;;;13.50;78.40;;;;;;4962305;28;20030;-82
2022/02/18 06:08:07;;;;;;;20.60;19.65;;;13.50;78.50;;;;;;4962827;28;20039;-85
2022/02/18 06:10:35;;;;;;;21.17;20.17;;;13.50;78.40;;;;;;4957725;28;20029;-85
2022/02/18 06:13:01;;;;;;;21.42;20.25;;;13.60;78.60;;;;;;4959092;28;20493;-85
2022/02/18 06:15:27;;;;;;;21.25;20.25;;;13.50;78.50;;;;;;4960054;28;20050;-85
2022/02/18 06:17:53;;;;;;;21.25;20.25;;;13.50;78.50;;;;;;4955386;28;20392;-86
2022/02/18 06:20:19;;;;;;;21.67;20.67;;;13.60;78.60;;;;;;4957379;28;20039;-86
2022/02/18 06:22:46;;;;;;;21.70;20.70;;;13.60;78.60;;;;;;4957672;28;20047;-85
2022/02/18 06:25:12;;;;;;;21.17;20.17;;;13.50;78.60;;;;;;4955375;28;20074;-86
2022/02/18 06:27:38;;;;;;;21.05;20.05;;;13.60;78.70;;;;;;4951644;28;20062;-85
2022/02/18 06:30:05;;;;;;;21.52;20.52;;;13.60;78.80;;;;;;4956384;28;20039;-85
2022/02/18 06:32:31;;;;;;;21.17;20.17;;;13.50;78.70;;;;;;4956953;28;20498;-85
2022/02/18 06:34:57;;;;;;;21.55;20.55;;;13.50;78.70;;;;;;4957026;28;20059;-86
2022/02/18 06:37:23;;;;;;;21.90;20.90;;;13.60;78.70;;;;;;4958156;28;20035;-86
2022/02/18 06:39:50;;;;;;;22.23;21.23;;;13.60;78.80;;;;;;4955499;28;20414;-85
2022/02/18 06:42:16;;;;;;;21.75;20.75;;;13.60;78.80;;;;;;4961529;28;20471;-85
2022/02/18 06:44:42;;;;;;;21.45;20.45;;;13.60;78.80;;;;;;4961164;28;20027;-85
2022/02/18 06:47:08;;;;;;;21.58;20.58;;;13.60;78.80;;;;;;4959903;28;20499;-85
2022/02/18 06:49:34;;;;;;;22.30;21.27;;;13.60;78.80;;;;;;4967190;28;20035;-85
2022/02/18 06:52:01;;;;;;;21.95;20.95;;;13.60;78.80;;;;;;4970833;28;20383;-85
2022/02/18 06:54:27;;;;;;;22.70;21.70;;;13.60;78.80;;;;;;4961516;28;20036;-86
2022/02/18 06:56:54;;;;;;;21.75;20.75;;;13.60;78.70;;;;;;4960982;28;20039;-85
2022/02/18 06:59:21;;;;;;;21.60;20.60;;;13.60;78.80;;;;;;4960322;28;20051;-86
2022/02/18 07:01:50;;;;;;;21.48;20.48;;;13.60;78.80;;;;;;4960046;28;20046;-86
2022/02/18 07:04:17;;;;;;;21.75;20.75;;;13.60;78.90;;;;;;4959024;28;20043;-86
2022/02/18 07:06:43;;;;;;;21.55;20.55;;;13.60;78.90;;;;;;4956727;28;20490;-86
2022/02/18 07:09:11;;;;;;;22.45;21.30;;;13.50;78.80;;;;;;4960993;28;20031;-83
2022/02/18 07:11:38;;;;;;;22.30;21.30;;;13.60;78.90;;;;;;4960184;28;20047;-84
2022/02/18 07:14:06;;;;;;;21.67;20.67;;;13.60;79.00;;;;;;4960067;28;20059;-85
2022/02/18 07:16:32;;;;;;;24.00;22.90;;;13.60;78.90;;;;;;4958180;28;20038;-86
2022/02/18 07:18:59;;;;;;;22.48;21.33;;;13.60;79.00;;;;;;4956124;28;20484;-86
2022/02/18 07:21:25;;;;;;;22.83;21.77;;;13.60;79.00;;;;;;4959588;28;20034;-86
2022/02/18 07:23:51;;;;;;;21.98;20.98;;;13.60;78.90;;;;;;4960583;28;20463;-86
2022/02/18 07:26:17;;;;;;;22.13;21.13;;;13.60;78.90;;;;;;4960202;28;20038;-86
2022/02/18 07:28:44;;;;;;;23.98;22.88;;;13.60;78.80;;;;;;4960147;28;20038;-86
2022/02/18 07:31:10;;;;;;;22.55;21.45;;;13.70;78.80;;;;;;4956916;28;20035;-87
2022/02/18 07:33:36;;;;;;;24.90;23.77;;;13.70;78.80;;;;;;4956765;28;20039;-86
2022/02/18 07:36:03;;;;;;;21.73;20.73;;;13.70;78.80;;;;;;4960636;28;20066;-89
2022/02/18 07:38:29;;;;;;;23.27;22.17;;;13.70;78.80;;;;;;4957662;28;20039;-94
2022/02/18 07:40:55;;;;;;;23.13;22.02;;;13.70;78.80;;;;;;4954155;28;20031;-91
2022/02/18 07:43:21;;;;;;;23.35;22.25;;;13.70;78.80;;;;;;4959698;28;20043;-94
2022/02/18 07:45:48;;;;;;;23.55;22.35;;;13.80;78.80;;;;;;4956431;28;20043;-93
2022/02/18 07:48:14;;;;;;;22.80;21.70;;;13.70;78.70;;;;;;4941904;29;20067;-92
2022/02/18 07:50:40;;;;;;;22.95;21.88;;;13.80;78.70;;;;;;4953921;28;20509;-91
2022/02/18 07:53:06;;;;;;;22.58;21.55;;;13.90;78.80;;;;;;4950191;28;20043;-92
2022/02/18 07:55:32;;;;;;;22.95;21.85;;;13.90;78.70;;;;;;4944643;28;20089;-92
2022/02/18 07:57:58;;;;;;;22.65;21.65;;;13.90;78.70;;;;;;4956716;29;20043;-92
2022/02/18 08:00:26;;;;;;;23.48;22.25;;;13.90;78.70;;;;;;4955977;28;20027;-93
2022/02/18 08:02:52;;;;;;;23.10;22.02;;;13.90;78.70;;;;;;4944333;28;20507;-92
2022/02/18 08:05:20;;;;;;;22.30;21.25;;;13.90;78.70;;;;;;4963844;28;20031;-93
2022/02/18 08:11:03;;;;;;;21.52;20.52;;;13.90;78.70;;;;;;4954914;28;20039;-93
2022/02/18 08:13:41;;;;;;;23.25;22.15;;;13.90;78.70;;;;;;4948019;28;20036;-93
2022/02/18 08:16:27;;;;;;;23.13;22.02;;;13.90;78.70;;;;;;4945290;28;20046;-92
2022/02/18 08:19:09;;;;;;;23.73;22.63;;;13.90;78.80;;;;;;4967197;28;20648;-91
2022/02/18 08:21:44;;;;;;;22.10;21.10;;;13.90;78.80;;;;;;4959650;29;20050;-90
2022/02/18 08:24:20;;;;;;;23.25;22.15;;;13.90;78.80;;;;;;4972176;28;20043;-90
2022/02/18 08:26:50;;;;;;;22.45;21.45;;;13.90;78.80;;;;;;4928658;29;20447;-91
2022/02/18 08:29:32;;;;;;;23.45;22.35;;;13.90;78.80;;;;;;4939072;29;20047;-92
2022/02/18 08:32:08;;;;;;;22.55;21.45;;;13.90;78.90;;;;;;4943844;28;20035;-91
2022/02/18 08:34:37;;;;;;;22.27;21.27;;;13.90;78.90;;;;;;4942111;28;20047;-90
2022/02/18 08:37:11;;;;;;;21.77;20.77;;;13.90;78.90;;;;;;4952997;29;20027;-93
2022/02/18 08:39:40;;;;;;;22.73;21.42;;;14.00;78.90;;;;;;4937927;28;20047;-91
2022/02/18 08:42:15;;;;;;;23.52;22.42;;;13.90;78.90;;;;;;4952100;28;20035;-90
2022/02/18 08:44:41;;;;;;;23.10;22.00;;;14.00;78.80;;;;;;4939109;28;20035;-93
2022/02/18 08:47:23;;;;;;;22.67;21.58;;;14.00;78.80;;;;;;4928361;29;20043;-93
2022/02/18 08:50:04;;;;;;;23.08;21.98;;;14.10;78.90;;;;;;4939743;29;20462;-93
2022/02/18 08:52:33;;;;;;;;;;;14.10;78.80;;;;;;4957340;28;20042;-93
2022/02/18 08:55:16;;;;;;;22.38;21.38;;;14.10;78.80;;;;;;4953825;28;19918;-93
2022/02/18 08:57:44;;;;;;;23.67;22.58;;;14.10;78.70;;;;;;4948641;28;20046;-94
2022/02/18 09:00:30;;;;;;;23.88;22.45;;;14.10;78.70;;;;;;4920996;28;20490;-93
2022/02/18 09:03:30;;;;;;;23.58;22.48;;;14.10;78.70;;;;;;4940501;29;20046;-94
2022/02/18 09:05:56;;;;;;;22.75;21.73;;;14.10;78.70;;;;;;4956165;28;20039;-93
2022/02/18 09:08:24;;;;;;;23.75;22.65;;;14.20;78.70;;;;;;4958807;28;20401;-89
2022/02/18 09:10:54;;;;;;;23.65;22.55;;;14.20;78.70;;;;;;4963620;28;20039;-89
2022/02/18 09:13:25;;;;;;;24.70;23.60;;;14.20;78.60;;;;;;4949912;28;20038;-91
2022/02/18 09:15:51;;;;;;;24.67;23.58;;;14.30;78.60;;;;;;4935388;28;20027;-91
2022/02/18 09:18:18;;;;;;;25.58;24.38;;;14.30;78.70;;;;;;4971357;28;20505;-92
2022/02/18 09:20:45;;;;;;;25.00;23.83;;;14.30;78.70;;;;;;4922710;29;20518;-93
2022/02/18 09:23:11;;;;;;;23.83;22.73;;;14.30;78.70;;;;;;4940860;29;20078;-92
2022/02/18 09:25:38;;;;;;;25.35;24.15;;;14.30;78.70;;;;;;4935753;29;20487;-93
2022/02/18 09:28:04;;;;;;;25.05;23.88;;;14.40;78.70;;;;;;4939412;28;20518;-90
2022/02/18 09:30:30;;;;;;;24.52;23.42;;;14.30;78.60;;;;;;4951211;28;20038;-91
2022/02/18 09:32:58;;;;;;;23.95;22.85;;;14.40;78.60;;;;;;4947714;28;20406;-92
2022/02/18 09:35:27;;;;;;;24.00;22.90;;;14.50;78.60;;;;;;4945831;28;20051;-91
2022/02/18 09:37:53;;;;;;;23.58;22.48;;;14.50;78.50;;;;;;4930056;28;20051;-89
2022/02/18 09:40:19;;;;;;;23.25;22.15;;;14.50;78.60;;;;;;4952677;28;20110;-92
2022/02/18 09:42:46;;;;;;;22.48;21.48;;;14.40;78.60;;;;;;4950438;28;20026;-91
2022/02/18 09:45:12;;;;;;;24.63;23.52;;;14.50;78.70;;;;;;4941213;28;20542;-92
2022/02/18 09:47:40;;;;;;;24.65;23.55;;;14.40;78.80;;;;;;4963694;28;20055;-92
2022/02/18 09:50:07;;;;;;;25.77;24.58;;;14.40;78.80;;;;;;4949648;28;20035;-90
2022/02/18 09:52:33;;;;;;;24.52;23.42;;;14.40;78.90;;;;;;4955270;28;20030;-88
2022/02/18 09:54:59;;;;;;;25.08;23.90;;;14.30;79.10;;;;;;4936149;29;20061;-91
2022/02/18 09:57:26;;;;;;;26.75;25.55;;;14.30;79.10;;;;;;4958735;28;20038;-91
2022/02/18 09:59:52;;;;;;;24.42;23.33;;;14.30;79.20;;;;;;4944385;28;20058;-92
2022/02/18 10:02:19;;;;;;;29.48;28.08;;;14.30;79.30;;;;;;4929770;28;20376;-93
2022/02/18 10:04:45;;;;;;;25.63;24.42;;;14.20;79.30;;;;;;4940534;28;20406;-91
2022/02/18 10:07:14;;;;;;;23.90;22.80;;;14.00;79.30;;;;;;4957870;28;20035;-94
2022/02/18 10:09:42;;;;;;;23.85;22.75;;;13.90;79.50;;;;;;4974475;28;20057;-92
2022/02/18 10:12:09;;;;;;;21.33;20.33;;;13.70;79.70;;;;;;4944623;29;20039;-92
2022/02/18 10:14:55;;;;;;;23.30;22.20;;;13.50;80.00;;;;;;4958464;28;20051;-93
2022/02/18 10:17:21;;;;;;;26.20;25.00;;;13.40;80.20;;;;;;4954572;28;20402;-92
2022/02/18 10:19:54;;;;;;;25.45;24.25;;;13.40;80.30;;;;;;4940027;28;20055;-93
2022/02/18 10:22:27;;;;;;;25.60;24.40;;;13.30;80.10;;;;;;4964877;28;20050;-93
2022/02/18 10:24:53;;;;;;;23.67;22.58;;;13.30;80.00;;;;;;4943584;29;20498;-93
2022/02/18 10:27:23;;;;;;;25.75;24.55;;;13.30;80.00;;;;;;4962378;28;20046;-90
2022/02/18 10:29:59;;;;;;;23.65;22.55;;;13.20;80.00;;;;;;4971518;28;20050;-90
2022/02/18 10:32:25;;;;;;;24.63;23.52;;;13.20;79.90;;;;;;4956181;28;20043;-91
2022/02/18 10:35:02;;;;;;;24.05;22.95;;;13.20;79.80;;;;;;4965164;28;20032;-89
2022/02/18 10:37:29;;;;;;;23.92;22.83;;;13.20;79.70;;;;;;4962403;28;20046;-91
2022/02/18 10:40:16;;;;;;;23.65;22.45;;;13.10;79.50;;;;;;4969098;28;20043;-90
2022/02/18 10:42:43;;;;;;;24.08;22.98;;;13.10;79.60;;;;;;4957220;28;21707;-91
2022/02/18 10:45:14;;;;;;;23.88;22.77;;;13.20;79.50;;;;;;4973142;28;20058;-90
2022/02/18 10:47:41;;;;;;;22.65;21.65;;;13.20;79.40;;;;;;4970061;28;20042;-91
2022/02/18 10:50:17;;;;;;;22.48;21.48;;;13.10;79.30;;;;;;4965793;28;20384;-89
2022/02/18 10:52:43;;;;;;;21.95;20.95;;;13.10;79.30;;;;;;4971015;28;20536;-89
2022/02/18 10:55:10;;;;;;;21.90;20.90;;;13.10;79.30;;;;;;4957580;28;20031;-92
2022/02/18 10:57:36;;;;;;;21.80;20.80;;;13.20;79.30;;;;;;4972109;28;20043;-89
2022/02/18 11:00:13;;;;;;;21.35;20.35;;;13.30;79.10;;;;;;4961297;28;20408;-90
2022/02/18 11:02:50;;;;;;;21.48;20.48;;;13.30;78.90;;;;;;4925244;28;20054;-91
2022/02/18 11:05:23;;;;;;;21.60;20.42;;;13.40;78.70;;;;;;4960722;28;20030;-89
2022/02/18 11:07:50;;;;;;;21.20;20.20;;;13.40;78.40;;;;;;4960335;28;20070;-89
2022/02/18 11:10:35;;;;;;;21.25;20.25;;;13.40;78.30;;;;;;4966624;28;20482;-86
2022/02/18 11:13:02;;;;;;;21.83;20.83;;;13.40;78.30;;;;;;4951574;28;20055;-86
2022/02/18 11:15:29;;;;;;;21.70;20.70;;;13.30;78.20;;;;;;4968890;28;20504;-88
2022/02/18 11:18:01;;;;;;;21.25;20.25;;;13.20;78.20;;;;;;4972411;28;20397;-88
2022/02/18 11:20:27;;;;;;;21.25;20.13;;;13.20;78.30;;;;;;4963549;28;20042;-90
2022/02/18 11:22:54;;;;;;;21.30;20.30;;;13.20;78.30;;;;;;4966621;28;20046;-89
2022/02/18 11:25:21;;;;;;;21.77;20.75;;;13.20;78.30;;;;;;4959260;28;20023;-90
2022/02/18 11:27:48;;;;;;;21.20;20.20;;;13.30;78.20;;;;;;4956278;28;20039;-92
2022/02/18 11:30:14;;;;;;;21.70;20.70;;;13.30;78.00;;;;;;4959052;28;20034;-93
2022/02/18 11:33:17;;;;;;;21.40;20.40;;;13.30;78.00;;;;;;4960253;28;20051;-93
2022/02/18 11:36:13;;;;;;;22.13;21.13;;;13.30;77.90;;;;;;4966315;28;20041;-91
2022/02/18 11:38:55;;;;;;;517.53;266.52;;;13.30;77.80;;;;;;4958346;28;20043;-90
2022/02/18 11:41:39;;;;;;;518.00;267.00;;;13.30;77.80;;;;;;4961887;28;20038;-91
2022/02/18 11:44:09;;;;;;;22.88;21.83;;;13.30;77.70;;;;;;4965441;28;20035;-87
2022/02/18 11:46:35;;;;;;;23.27;22.17;;;13.30;77.60;;;;;;4943210;28;20031;-91
2022/02/18 11:49:02;;;;;;;23.92;22.83;;;13.40;77.60;;;;;;4958997;28;20058;-92
2022/02/18 11:51:42;;;;;;;1999.90;999.90;;;13.40;77.40;;;;;;4952199;28;20038;-88
2022/02/18 11:54:28;;;;;;;1999.90;999.90;;;13.40;77.20;;;;;;4971832;28;20046;-85
2022/02/18 11:57:01;;;;;;;1999.90;999.90;;;13.50;77.10;;;;;;4945841;28;20031;-93
2022/02/18 11:59:59;;;;;;;1999.90;999.90;;;13.60;76.90;;;;;;4950191;28;20051;-85
2022/02/18 12:02:37;;;;;;;1999.90;999.90;;;13.60;76.90;;;;;;4956054;28;20565;-85
2022/02/18 12:05:11;;;;;;;1999.90;999.90;;;13.70;76.60;;;;;;4958887;28;20046;-84
2022/02/18 12:07:39;;;;;;;1999.90;999.90;;;13.80;76.40;;;;;;4964882;28;20043;-85
2022/02/18 12:10:27;;;;;;;1999.90;999.90;;;13.80;77.00;;;;;;4956405;28;20039;-84
2022/02/18 12:13:05;;;;;;;1999.90;999.90;;;13.80;76.20;;;;;;4945208;28;20391;-84
2022/02/18 12:15:33;;;;;;;1999.90;999.90;;;13.90;76.00;;;;;;4952385;28;20034;-85
2022/02/18 12:18:04;;;;;;;1999.90;999.90;;;13.90;75.90;;;;;;4958912;28;20043;-85
2022/02/18 12:20:33;;;;;;;1999.90;999.90;;;14.00;75.70;;;;;;4958217;28;20039;-83
2022/02/18 12:23:20;;;;;;;1999.90;999.90;;;14.00;75.70;;;;;;4959366;28;20084;-84
2022/02/18 12:25:46;;;;;;;1999.90;999.90;;;13.90;75.50;;;;;;4961501;28;20043;-85
2022/02/18 12:28:20;;;;;;;1999.90;999.90;;;14.00;75.50;;;;;;4965881;28;20398;-86
2022/02/18 12:31:09;;;;;;;1999.90;999.90;;;14.00;75.40;;;;;;4967922;28;20066;-84
2022/02/18 12:33:39;;;;;;;1999.90;999.90;;;14.00;75.40;;;;;;4959122;28;20027;-85
2022/02/18 12:36:16;;;;;;;1999.90;999.90;;;14.00;75.20;;;;;;4953186;28;20034;-85